Time;durP1;ratioP1;P1;durP2;ratioP2;P2;SDS_P1;SDS_P2;PMS_P1;PMS_P2;Temp;Humidity;BMP_temperature;BMP_pressure;BME280_temperature;BME280_humidity;BME280_pressure;Samples;Min_cycle;Max_cycle;Signal;HPM_P1;HPM_P2
2022/12/09 00:00:33;;;;;;;;;;;2.80;99.90;;;;;;5014441;28;20051;-88
2022/12/09 00:02:59;;;;;;;;;;;2.70;99.90;;;;;;5015091;28;19921;-90
2022/12/09 00:05:27;;;;;;;;;;;2.70;99.90;;;;;;4997672;28;19928;-89
2022/12/09 00:08:00;;;;;;;;;;;2.70;99.90;;;;;;4997613;28;19928;-89
2022/12/09 00:10:33;;;;;;;;;;;2.70;99.90;;;;;;5015092;28;19925;-91
2022/12/09 00:13:11;;;;;;;;;;;2.70;99.90;;;;;;4999355;28;20356;-89
2022/12/09 00:15:54;;;;;;;;;;;2.70;99.90;;;;;;4998039;28;19922;-89
2022/12/09 00:18:27;;;;;;;;;;;2.70;99.90;;;;;;5014030;28;19921;-89
2022/12/09 00:20:55;;;;;;;;;;;2.70;99.90;;;;;;4998719;28;19983;-90
2022/12/09 00:23:26;;;;;;;;;;;2.70;99.90;;;;;;5014999;28;19960;-89
2022/12/09 00:25:55;;;;;;;;;;;2.70;99.90;;;;;;5013584;28;19921;-88
2022/12/09 00:28:26;;;;;;;;;;;2.60;99.90;;;;;;4998211;28;19929;-89
2022/12/09 00:30:51;;;;;;;;;;;2.70;99.90;;;;;;5013626;28;19921;-89
2022/12/09 00:33:19;;;;;;;;;;;2.60;99.90;;;;;;4996867;28;20008;-89
2022/12/09 00:35:55;;;;;;;;;;;2.60;99.90;;;;;;5014497;28;19927;-88
2022/12/09 00:38:31;;;;;;;;;;;2.70;99.90;;;;;;5013857;28;19921;-90
2022/12/09 00:41:04;;;;;;;;;;;2.60;99.90;;;;;;5014480;28;19928;-89
2022/12/09 00:44:02;;;;;;;;;;;2.60;99.90;;;;;;5015156;28;20004;-90
2022/12/09 00:46:40;;;;;;;;;;;2.50;99.90;;;;;;5013896;28;19968;-89
2022/12/09 00:49:08;;;;;;;;;;;2.70;99.90;;;;;;4997288;28;20004;-91
2022/12/09 00:51:54;;;;;;;;;;;2.60;99.90;;;;;;5013815;28;19921;-89
2022/12/09 00:54:25;;;;;;;;;;;2.60;99.90;;;;;;4980655;28;20357;-89
2022/12/09 00:57:10;;;;;;;;;;;2.60;99.90;;;;;;4996708;28;20265;-90
2022/12/09 00:59:36;;;;;;;;;;;2.60;99.90;;;;;;4982533;28;19921;-89
2022/12/09 01:02:07;;;;;;;;;;;2.60;99.90;;;;;;4996302;28;19928;-89
2022/12/09 01:04:32;;;;;;;;;;;2.60;99.90;;;;;;4997082;28;19937;-89
2022/12/09 01:07:08;;;;;;;;;;;2.60;99.90;;;;;;4997129;28;19922;-89
2022/12/09 01:09:36;;;;;;;;;;;2.60;99.90;;;;;;4997169;28;19925;-90
2022/12/09 01:12:07;;;;;;;;;;;2.60;99.90;;;;;;4996761;28;19972;-89
2022/12/09 01:14:46;;;;;;;;;;;;;;;;;;;;;
2022/12/09 01:17:12;;;;;;;;;;;2.60;99.90;;;;;;5013252;28;19928;-82
2022/12/09 01:19:38;;;;;;;;;;;2.60;99.90;;;;;;5013095;28;19922;-85
2022/12/09 01:22:04;;;;;;;;;;;2.60;99.90;;;;;;5013790;28;20269;-86
2022/12/09 01:24:29;;;;;;;;;;;2.60;99.90;;;;;;5013615;28;19928;-82
2022/12/09 01:26:55;;;;;;;;;;;2.70;99.90;;;;;;4996702;28;19921;-82
2022/12/09 01:29:20;;;;;;;;;;;2.70;99.90;;;;;;5013793;28;20357;-86
2022/12/09 01:31:46;;;;;;;;;;;2.70;99.90;;;;;;5013810;28;19979;-87
2022/12/09 01:34:12;;;;;;;;;;;2.60;99.90;;;;;;4996353;28;20055;-83
2022/12/09 01:36:37;;;;;;;;;;;2.60;99.90;;;;;;5013595;28;19921;-83
2022/12/09 01:39:03;;;;;;;;;;;2.70;99.90;;;;;;4996297;28;19928;-82
2022/12/09 01:41:29;;;;;;;;;;;2.60;99.90;;;;;;5013575;28;19968;-82
2022/12/09 01:44:13;;;;;;;;;;;2.70;99.90;;;;;;5014076;28;20383;-88
2022/12/09 01:46:39;;;;;;;;;;;2.60;99.90;;;;;;5012870;28;19928;-83
2022/12/09 01:49:05;;;;;;;;;;;2.60;99.90;;;;;;5013506;28;19925;-83
2022/12/09 01:51:31;;;;;;;;;;;2.60;99.90;;;;;;5013126;28;20034;-83
2022/12/09 01:53:57;;;;;;;;;;;2.60;99.90;;;;;;5014195;28;19973;-91
2022/12/09 01:56:25;;;;;;;;;;;2.60;99.90;;;;;;5012432;28;19928;-82
2022/12/09 01:58:52;;;;;;;;;;;2.50;99.90;;;;;;5013584;28;19977;-82
2022/12/09 02:01:18;;;;;;;;;;;2.60;99.90;;;;;;5012247;28;20368;-82
2022/12/09 02:03:43;;;;;;;;;;;2.50;99.90;;;;;;5013855;28;19982;-82
2022/12/09 02:06:09;;;;;;;;;;;2.50;99.90;;;;;;5013346;28;19967;-82
2022/12/09 02:08:34;;;;;;;;;;;2.50;99.90;;;;;;5012621;28;19922;-82
2022/12/09 02:11:12;;;;;;;;;;;2.50;99.90;;;;;;5014311;28;20020;-83
2022/12/09 02:13:57;;;;;;;;;;;2.50;99.90;;;;;;5016865;28;19967;-83
2022/12/09 02:16:23;;;;;;;;;;;2.60;99.90;;;;;;5016852;28;19921;-82
2022/12/09 02:18:55;;;;;;;;;;;2.50;99.90;;;;;;5017040;28;19925;-82
2022/12/09 02:21:26;;;;;;;;;;;2.50;99.90;;;;;;5016111;28;19921;-82
2022/12/09 02:23:54;;;;;;;;;;;2.50;99.90;;;;;;5016759;28;19929;-82
2022/12/09 02:26:24;;;;;;;;;;;2.50;99.90;;;;;;5016596;28;20020;-84
2022/12/09 02:28:58;;;;;;;;;;;2.50;99.90;;;;;;5015526;28;19975;-82
2022/12/09 02:31:42;;;;;;;;;;;2.50;99.90;;;;;;5016471;28;20407;-83
2022/12/09 02:34:21;;;;;;;;;;;2.60;99.90;;;;;;5015511;28;19921;-82
2022/12/09 02:37:05;;;;;;;;;;;2.50;99.90;;;;;;5017235;28;19928;-82
2022/12/09 02:39:48;;;;;;;;;;;2.60;99.90;;;;;;5015761;28;19921;-82
2022/12/09 02:42:15;;;;;;;;;;;2.60;99.90;;;;;;5015909;28;20224;-83
2022/12/09 02:44:42;;;;;;;;;;;2.60;99.90;;;;;;5016449;28;19922;-82
2022/12/09 02:47:09;;;;;;;;;;;2.70;99.90;;;;;;5015361;28;19983;-83
2022/12/09 02:49:35;;;;;;;;;;;2.60;99.90;;;;;;5016497;28;19964;-83
2022/12/09 02:52:02;;;;;;;;;;;2.60;99.90;;;;;;5016382;28;19921;-82
2022/12/09 02:54:29;;;;;;;;;;;2.50;99.90;;;;;;4998661;28;19985;-82
2022/12/09 02:56:56;;;;;;;;;;;2.50;99.90;;;;;;5015144;28;19937;-83
2022/12/09 02:59:22;;;;;;;;;;;2.40;99.90;;;;;;5016076;28;19975;-83
2022/12/09 03:01:47;;;;;;;;;;;2.30;99.90;;;;;;5016146;28;20339;-82
2022/12/09 03:04:16;;;;;;;;;;;2.30;99.90;;;;;;5016049;28;20008;-82
2022/12/09 03:06:45;;;;;;;;;;;2.30;99.90;;;;;;5015584;28;19921;-82
2022/12/09 03:09:16;;;;;;;;;;;2.30;99.90;;;;;;5017047;28;20256;-82
2022/12/09 03:11:42;;;;;;;;;;;2.30;99.90;;;;;;5016018;28;19964;-82
2022/12/09 03:14:14;;;;;;;;;;;2.30;99.90;;;;;;5015778;28;20023;-86
2022/12/09 03:16:43;;;;;;;;;;;2.30;99.90;;;;;;5014595;28;19984;-82
2022/12/09 03:19:13;;;;;;;;;;;2.40;99.90;;;;;;5016291;28;20077;-82
2022/12/09 03:21:41;;;;;;;;;;;2.40;99.90;;;;;;5015694;28;19921;-83
2022/12/09 03:24:08;;;;;;;;;;;2.30;99.90;;;;;;5014345;28;20070;-82
2022/12/09 03:26:35;;;;;;;;;;;2.30;99.90;;;;;;5015632;28;19928;-86
2022/12/09 03:29:03;;;;;;;;;;;2.30;99.90;;;;;;5016409;28;19922;-82
2022/12/09 03:31:29;;;;;;;;;;;2.30;99.90;;;;;;5014050;28;20008;-83
2022/12/09 03:33:58;;;;;;;;;;;2.30;99.90;;;;;;5015735;28;19993;-82
2022/12/09 03:36:24;;;;;;;;;;;2.30;99.90;;;;;;5022482;28;19932;-82
2022/12/09 03:38:50;;;;;;;;;;;2.30;99.90;;;;;;4999072;28;19922;-82
2022/12/09 03:41:20;;;;;;;;;;;2.30;99.90;;;;;;5014189;28;20366;-83
2022/12/09 03:43:50;;;;;;;;;;;2.20;99.90;;;;;;5015330;28;19929;-86
2022/12/09 03:46:16;;;;;;;;;;;2.20;99.90;;;;;;5015970;28;20051;-82
2022/12/09 03:48:42;;;;;;;;;;;2.20;99.90;;;;;;5015289;28;20066;-82
2022/12/09 03:51:11;;;;;;;;;;;2.20;99.90;;;;;;5015347;28;19921;-81
2022/12/09 03:53:45;;;;;;;;;;;2.10;99.90;;;;;;4997638;28;19921;-82
2022/12/09 03:56:11;;;;;;;;;;;2.10;99.90;;;;;;5015028;28;19928;-82
2022/12/09 03:58:39;;;;;;;;;;;2.10;99.90;;;;;;5015290;28;19922;-83
2022/12/09 04:01:05;;;;;;;;;;;2.10;99.90;;;;;;5014559;28;20388;-83
2022/12/09 04:03:32;;;;;;;;;;;2.10;99.90;;;;;;5014026;28;19921;-82
2022/12/09 04:05:58;;;;;;;;;;;2.10;99.90;;;;;;5013726;28;19922;-82
2022/12/09 04:08:23;;;;;;;;;;;2.20;99.90;;;;;;5014736;28;19928;-83
2022/12/09 04:10:49;;;;;;;;;;;2.10;99.90;;;;;;5014866;28;19968;-83
2022/12/09 04:13:14;;;;;;;;;;;2.20;99.90;;;;;;5013451;28;20427;-83
2022/12/09 04:15:40;;;;;;;;;;;2.10;99.90;;;;;;5014781;28;20012;-83
2022/12/09 04:18:06;;;;;;;;;;;2.20;99.90;;;;;;4998120;28;19972;-83
2022/12/09 04:20:31;;;;;;;;;;;2.20;99.90;;;;;;5013396;28;20283;-83
2022/12/09 04:22:57;;;;;;;;;;;2.10;99.90;;;;;;5014416;28;19964;-82
2022/12/09 04:25:22;;;;;;;;;;;2.10;99.90;;;;;;5014591;28;19968;-82
2022/12/09 04:27:48;;;;;;;;;;;2.10;99.90;;;;;;5014285;28;20007;-82
2022/12/09 04:30:13;;;;;;;;;;;2.00;99.90;;;;;;5014553;28;19921;-83
2022/12/09 04:32:39;;;;;;;;;;;2.00;99.90;;;;;;5014018;28;20407;-87
2022/12/09 04:35:05;;;;;;;;;;;1.90;99.90;;;;;;5012734;28;19947;-83
2022/12/09 04:37:31;;;;;;;;;;;1.90;99.90;;;;;;5013408;28;20253;-82
2022/12/09 04:39:56;;;;;;;;;;;2.00;99.90;;;;;;5014419;28;19926;-82
2022/12/09 04:42:22;;;;;;;;;;;1.90;99.90;;;;;;5014491;28;20353;-85
2022/12/09 04:44:47;;;;;;;;;;;1.90;99.90;;;;;;5014242;28;19976;-82
2022/12/09 04:47:13;;;;;;;;;;;1.90;99.90;;;;;;5014171;28;19921;-85
2022/12/09 04:49:38;;;;;;;;;;;1.90;99.90;;;;;;5014226;28;19925;-83
2022/12/09 04:52:04;;;;;;;;;;;1.90;99.90;;;;;;5016987;28;19931;-82
2022/12/09 04:54:30;;;;;;;;;;;1.90;99.90;;;;;;5018289;28;19922;-83
2022/12/09 04:56:55;;;;;;;;;;;1.90;99.90;;;;;;5017259;28;19947;-82
2022/12/09 04:59:21;;;;;;;;;;;1.90;99.90;;;;;;5015136;28;19952;-82
2022/12/09 05:01:46;;;;;;;;;;;1.80;99.90;;;;;;5014256;28;19983;-86
2022/12/09 05:04:12;;;;;;;;;;;1.80;99.90;;;;;;5014225;28;19921;-82
2022/12/09 05:06:37;;;;;;;;;;;1.80;99.90;;;;;;5014500;28;20305;-82
2022/12/09 05:09:03;;;;;;;;;;;1.80;99.90;;;;;;5012634;28;20004;-82
2022/12/09 05:11:28;;;;;;;;;;;1.80;99.90;;;;;;5012738;28;19921;-85
2022/12/09 05:13:54;;;;;;;;;;;1.80;99.90;;;;;;5014494;28;19925;-82
2022/12/09 05:16:20;;;;;;;;;;;1.70;99.90;;;;;;5014449;28;19921;-82
2022/12/09 05:18:46;;;;;;;;;;;1.70;99.90;;;;;;5012782;28;19921;-82
2022/12/09 05:21:14;;;;;;;;;;;1.70;99.90;;;;;;5014338;28;19922;-82
2022/12/09 05:23:39;;;;;;;;;;;1.70;99.90;;;;;;4997193;28;19925;-82
2022/12/09 05:26:06;;;;;;;;;;;1.70;99.90;;;;;;5013704;28;19996;-82
2022/12/09 05:28:32;;;;;;;;;;;1.70;99.90;;;;;;5013848;28;19935;-82
2022/12/09 05:31:08;;;;;;;;;;;1.70;99.90;;;;;;5014267;28;20004;-82
2022/12/09 05:33:34;;;;;;;;;;;1.70;99.90;;;;;;5013585;28;19975;-83
2022/12/09 05:35:59;;;;;;;;;;;1.70;99.90;;;;;;5013573;28;19921;-82
2022/12/09 05:38:25;;;;;;;;;;;1.60;99.90;;;;;;5012604;28;19928;-82
2022/12/09 05:40:51;;;;;;;;;;;1.60;99.90;;;;;;5012710;28;19921;-84
2022/12/09 05:43:17;;;;;;;;;;;1.60;99.90;;;;;;5012967;28;19947;-82
2022/12/09 05:45:43;;;;;;;;;;;1.60;99.90;;;;;;5014772;28;20191;-84
2022/12/09 05:48:08;;;;;;;;;;;1.60;99.90;;;;;;5016563;28;20291;-83
2022/12/09 05:50:34;;;;;;;;;;;1.70;99.90;;;;;;5000238;28;20329;-84
2022/12/09 05:53:00;;;;;;;;;;;1.60;99.90;;;;;;5018184;28;19922;-82
2022/12/09 05:55:26;;;;;;;;;;;1.60;99.90;;;;;;5017327;28;19925;-86
2022/12/09 05:57:51;;;;;;;;;;;1.50;99.90;;;;;;5020918;28;19933;-84
2022/12/09 06:00:17;;;;;;;;;;;1.50;99.90;;;;;;5018330;28;19921;-88
2022/12/09 06:02:42;;;;;;;;;;;1.40;99.90;;;;;;5017432;28;20012;-82
2022/12/09 06:05:08;;;;;;;;;;;1.40;99.90;;;;;;5015658;28;19928;-86
2022/12/09 06:07:34;;;;;;;;;;;1.30;99.90;;;;;;5017128;28;20020;-85
2022/12/09 06:10:00;;;;;;;;;;;1.30;99.90;;;;;;5017080;28;19921;-82
2022/12/09 06:12:26;;;;;;;;;;;1.20;99.90;;;;;;5017212;28;19922;-82
2022/12/09 06:14:51;;;;;;;;;;;1.20;99.90;;;;;;5017612;28;19967;-83
2022/12/09 06:17:17;;;;;;;;;;;1.10;99.90;;;;;;5016603;28;20344;-84
2022/12/09 06:19:42;;;;;;;;;;;1.10;99.90;;;;;;5015900;28;19929;-88
2022/12/09 06:22:08;;;;;;;;;;;0.90;99.90;;;;;;5016817;28;20012;-83
2022/12/09 06:24:34;;;;;;;;;;;0.90;99.90;;;;;;5016853;28;19921;-83
2022/12/09 06:27:00;;;;;;;;;;;0.80;99.90;;;;;;5016714;28;19921;-83
2022/12/09 06:29:25;;;;;;;;;;;0.70;99.90;;;;;;5016837;28;19975;-83
2022/12/09 06:31:51;;;;;;;;;;;0.70;99.90;;;;;;4999028;28;19969;-82
2022/12/09 06:34:16;;;;;;;;;;;0.70;99.90;;;;;;5017286;28;19921;-83
2022/12/09 06:36:42;;;;;;;;;;;0.70;99.90;;;;;;5015606;28;19928;-82
2022/12/09 06:39:08;;;;;;;;;;;0.60;99.90;;;;;;4999101;28;19979;-84
2022/12/09 06:41:33;;;;;;;;;;;0.60;99.90;;;;;;5016490;28;19921;-83
2022/12/09 06:44:02;;;;;;;;;;;0.60;99.90;;;;;;5015089;28;19921;-84
2022/12/09 06:46:28;;;;;;;;;;;0.50;99.90;;;;;;5015458;28;19921;-82
2022/12/09 06:48:54;;;;;;;;;;;0.50;99.90;;;;;;5016405;28;19921;-84
2022/12/09 06:51:20;;;;;;;;;;;0.40;99.90;;;;;;5016437;28;19925;-83
2022/12/09 06:53:46;;;;;;;;;;;0.30;99.90;;;;;;5014917;28;20051;-83
2022/12/09 06:56:12;;;;;;;;;;;0.20;99.90;;;;;;5016300;28;19922;-83
2022/12/09 06:58:38;;;;;;;;;;;0.10;99.90;;;;;;5014628;28;20349;-83
2022/12/09 07:01:05;;;;;;;;;;;0.10;99.90;;;;;;5016114;28;20016;-84
2022/12/09 07:03:30;;;;;;;;;;;0.00;99.90;;;;;;5015415;28;19984;-82
2022/12/09 07:05:56;;;;;;;;;;;0.00;99.90;;;;;;5016839;28;20349;-83
2022/12/09 07:08:21;;;;;;;;;;;0.10;99.90;;;;;;5015292;28;20349;-83
2022/12/09 07:10:47;;;;;;;;;;;0.00;99.90;;;;;;5015175;28;19921;-82
2022/12/09 07:13:12;;;;;;;;;;;-0.10;99.90;;;;;;5015854;28;20371;-82
2022/12/09 07:15:38;;;;;;;;;;;-0.10;99.90;;;;;;5016084;28;19921;-83
2022/12/09 07:18:03;;;;;;;;;;;-0.10;99.90;;;;;;5015261;28;19967;-83
2022/12/09 07:20:29;;;;;;;;;;;-0.10;99.90;;;;;;5016406;28;19925;-83
2022/12/09 07:22:55;;;;;;;;;;;-0.20;99.90;;;;;;5016452;28;19929;-83
2022/12/09 07:25:20;;;;;;;;;;;-0.10;99.90;;;;;;5015095;28;19921;-83
2022/12/09 07:27:46;;;;;;;;;;;-0.10;99.90;;;;;;5014811;28;19921;-83
2022/12/09 07:30:11;;;;;;;;;;;-0.10;99.90;;;;;;5015302;28;19971;-82
2022/12/09 07:32:37;;;;;;;;;;;-0.20;99.90;;;;;;5014613;28;19925;-82
2022/12/09 07:35:03;;;;;;;;;;;-0.30;99.90;;;;;;5015798;28;19927;-86
2022/12/09 07:37:28;;;;;;;;;;;-0.30;99.90;;;;;;5016144;28;20368;-83
2022/12/09 07:39:54;;;;;;;;;;;-0.30;99.90;;;;;;5015340;28;19925;-82
2022/12/09 07:42:19;;;;;;;;;;;-0.30;99.90;;;;;;5016121;28;20016;-82
2022/12/09 07:44:46;;;;;;;;;;;-0.30;99.90;;;;;;4982026;28;20276;-83
2022/12/09 07:47:12;;;;;;;;;;;-0.40;99.90;;;;;;4997522;28;19964;-82
2022/12/09 07:49:38;;;;;;;;;;;-0.40;99.90;;;;;;5016136;28;19925;-82
2022/12/09 07:52:03;;;;;;;;;;;-0.40;99.90;;;;;;5014328;28;20294;-82
2022/12/09 07:54:29;;;;;;;;;;;-0.40;99.90;;;;;;5013961;28;19927;-83
2022/12/09 07:56:54;;;;;;;;;;;-0.40;99.90;;;;;;4998032;28;19933;-82
2022/12/09 07:59:20;;;;;;;;;;;-0.50;99.90;;;;;;5014557;28;19929;-82
2022/12/09 08:01:46;;;;;;;;;;;-0.50;99.90;;;;;;5014427;28;19922;-82
2022/12/09 08:04:11;;;;;;;;;;;-0.50;99.90;;;;;;5014205;28;19967;-82
2022/12/09 08:06:37;;;;;;;;;;;-0.50;99.90;;;;;;5014114;28;20349;-83
2022/12/09 08:09:06;;;;;;;;;;;-0.40;99.90;;;;;;5014174;28;20329;-86
2022/12/09 08:11:32;;;;;;;;;;;-0.50;99.90;;;;;;5015797;28;19922;-83
2022/12/09 08:13:58;;;;;;;;;;;-0.50;99.90;;;;;;5026847;28;19980;-82
2022/12/09 08:16:24;;;;;;;;;;;-0.40;99.90;;;;;;5015105;28;19928;-82
2022/12/09 08:18:51;;;;;;;;;;;-0.40;99.90;;;;;;5015563;28;19972;-81
2022/12/09 08:21:24;;;;;;;;;;;-0.30;99.90;;;;;;5014881;28;20400;-81
2022/12/09 08:23:50;;;;;;;;;;;-0.40;99.90;;;;;;5014652;28;20262;-81
2022/12/09 08:26:16;;;;;;;;;;;-0.40;99.90;;;;;;5014208;28;20008;-86
2022/12/09 08:28:42;;;;;;;;;;;-0.30;99.90;;;;;;5013673;28;19975;-82
2022/12/09 08:31:09;;;;;;;;;;;-0.30;99.90;;;;;;5015206;28;19921;-84
2022/12/09 08:33:35;;;;;;;;;;;-0.10;99.90;;;;;;5012827;28;19925;-82
2022/12/09 08:36:02;;;;;;;;;;;-0.10;99.90;;;;;;5014457;28;20024;-83
2022/12/09 08:38:27;;;;;;;;;;;0.00;99.90;;;;;;5013605;28;19921;-82
2022/12/09 08:40:53;;;;;;;;;;;0.10;99.90;;;;;;5016037;28;20293;-85
2022/12/09 08:43:19;;;;;;;;;;;0.20;99.90;;;;;;5023193;28;19944;-87
2022/12/09 08:45:44;;;;;;;;;;;0.40;99.90;;;;;;5022105;28;19925;-83
2022/12/09 08:48:10;;;;;;;;;;;0.50;99.90;;;;;;5021426;28;19928;-83
2022/12/09 08:50:36;;;;;;;;;;;0.60;99.90;;;;;;5016035;28;20012;-83
2022/12/09 08:53:01;;;;;;;;;;;0.70;99.90;;;;;;5014484;28;19922;-86
2022/12/09 08:55:27;;;;;;;;;;;0.70;99.90;;;;;;4997664;28;19921;-85
2022/12/09 08:57:52;;;;;;;;;;;0.70;99.90;;;;;;4997315;28;20011;-83
2022/12/09 09:00:18;;;;;;;;;;;0.80;99.90;;;;;;5012836;28;19921;-84
2022/12/09 09:02:44;;;;;;;;;;;0.80;99.90;;;;;;5013091;28;20012;-82
2022/12/09 09:05:10;;;;;;;;;;;1.00;99.90;;;;;;5013742;28;19921;-82
2022/12/09 09:07:36;;;;;;;;;;;0.90;99.90;;;;;;5014172;28;19921;-82
2022/12/09 09:10:01;;;;;;;;;;;0.90;99.90;;;;;;5014252;28;19921;-82
2022/12/09 09:12:27;;;;;;;;;;;0.90;99.90;;;;;;5013454;28;20264;-83
2022/12/09 09:14:53;;;;;;;;;;;1.00;99.90;;;;;;5013900;28;19922;-82
2022/12/09 09:17:19;;;;;;;;;;;0.90;99.90;;;;;;5013856;28;19921;-84
2022/12/09 09:19:45;;;;;;;;;;;0.90;99.90;;;;;;5013945;28;19963;-83
2022/12/09 09:22:10;;;;;;;;;;;1.00;99.90;;;;;;5019273;28;19921;-84
2022/12/09 09:24:36;;;;;;;;;;;1.00;99.90;;;;;;5019476;28;19928;-82
2022/12/09 09:27:01;;;;;;;;;;;1.00;99.90;;;;;;5002768;28;20283;-84
2022/12/09 09:29:27;;;;;;;;;;;1.00;99.90;;;;;;5018998;28;19928;-84
2022/12/09 09:31:53;;;;;;;;;;;1.00;99.90;;;;;;5002807;28;19928;-84
2022/12/09 09:34:19;;;;;;;;;;;1.00;99.90;;;;;;5019235;28;19947;-87
2022/12/09 09:36:45;;;;;;;;;;;1.10;99.90;;;;;;5020031;28;20357;-86
2022/12/09 09:39:11;;;;;;;;;;;1.10;99.90;;;;;;5019591;28;20004;-82
2022/12/09 09:41:42;;;;;;;;;;;1.20;99.90;;;;;;5002633;28;19965;-82
2022/12/09 09:44:17;;;;;;;;;;;1.20;99.90;;;;;;5019192;28;20354;-82
2022/12/09 09:46:43;;;;;;;;;;;1.20;99.90;;;;;;5020735;28;20272;-82
2022/12/09 09:49:12;;;;;;;;;;;1.20;99.90;;;;;;5002767;28;20349;-84
2022/12/09 09:51:37;;;;;;;;;;;1.30;99.90;;;;;;5020092;28;19921;-85
2022/12/09 09:54:03;;;;;;;;;;;1.30;99.90;;;;;;5019832;28;20079;-82
2022/12/09 09:56:53;;;;;;;;;;;1.20;99.90;;;;;;5020536;28;19929;-82
2022/12/09 09:59:27;;;;;;;;;;;1.20;99.90;;;;;;5002742;28;20047;-82
2022/12/09 10:02:02;;;;;;;;;;;1.20;99.90;;;;;;5020945;28;19925;-82
2022/12/09 10:04:33;;;;;;;;;;;1.20;99.90;;;;;;5020000;28;19928;-82
2022/12/09 10:06:58;;;;;;;;;;;1.30;99.90;;;;;;5019942;28;19921;-82
2022/12/09 10:09:47;;;;;;;;;;;1.30;99.90;;;;;;5020227;28;19921;-83
2022/12/09 10:12:23;;;;;;;;;;;1.40;99.90;;;;;;5015559;28;20369;-82
2022/12/09 10:14:48;;;;;;;;;;;1.40;99.90;;;;;;5019589;28;19928;-82
2022/12/09 10:17:32;;;;;;;;;;;1.30;99.90;;;;;;5020109;28;20071;-82
2022/12/09 10:20:04;;;;;;;;;;;1.40;99.90;;;;;;5019929;28;19922;-83
2022/12/09 10:22:33;;;;;;;;;;;1.50;99.90;;;;;;5018980;28;19922;-82
2022/12/09 10:25:04;;;;;;;;;;;1.50;99.90;;;;;;5021864;28;19921;-82
2022/12/09 10:27:35;;;;;;;;;;;1.60;99.90;;;;;;5024262;28;19988;-82
2022/12/09 10:30:12;;;;;;;;;;;1.50;99.90;;;;;;5027354;28;19922;-84
2022/12/09 10:32:38;;;;;;;;;;;1.50;99.90;;;;;;5021521;28;19925;-84
2022/12/09 10:35:22;;;;;;;;;;;1.60;99.90;;;;;;5016759;28;19934;-83
2022/12/09 10:37:50;;;;;;;;;;;1.50;99.90;;;;;;5000088;28;19929;-83
2022/12/09 10:40:31;;;;;;;;;;;1.50;99.90;;;;;;5016591;28;19961;-84
2022/12/09 10:46:03;;;;;;;;;;;1.60;99.90;;;;;;5016370;28;20003;-84
2022/12/09 10:48:30;;;;;;;;;;;1.60;99.90;;;;;;5015456;28;19921;-84
2022/12/09 10:50:57;;;;;;;;;;;1.60;99.90;;;;;;4999814;28;19922;-82
2022/12/09 10:53:23;;;;;;;;;;;1.60;99.90;;;;;;5017043;28;19925;-83
2022/12/09 10:55:49;;;;;;;;;;;1.70;99.90;;;;;;5015324;28;20380;-83
2022/12/09 10:58:19;;;;;;;;;;;1.70;99.90;;;;;;5015544;28;19925;-83
2022/12/09 11:01:00;;;;;;;;;;;1.80;99.90;;;;;;5015271;28;19979;-83
2022/12/09 11:03:34;;;;;;;;;;;1.80;99.90;;;;;;5015130;28;19921;-83
2022/12/09 11:06:02;;;;;;;;;;;1.90;99.90;;;;;;5016954;28;19921;-82
2022/12/09 11:08:28;;;;;;;;;;;1.90;99.90;;;;;;4998296;28;19922;-84
2022/12/09 11:10:54;;;;;;;;;;;2.00;99.90;;;;;;5016089;28;19921;-82
2022/12/09 11:13:24;;;;;;;;;;;1.90;99.90;;;;;;5014842;28;19987;-85
2022/12/09 11:15:59;;;;;;;;;;;1.90;99.90;;;;;;4996116;28;19929;-84
2022/12/09 11:18:31;;;;;;;;;;;1.90;99.90;;;;;;5016799;28;20284;-80
2022/12/09 11:20:58;;;;;;;;;;;1.90;99.90;;;;;;5017935;28;19921;-84
2022/12/09 11:23:24;;;;;;;;;;;2.00;99.90;;;;;;5019626;28;19922;-82
2022/12/09 11:26:04;;;;;;;;;;;2.00;99.90;;;;;;5002380;28;20067;-83
2022/12/09 11:28:37;;;;;;;;;;;2.00;99.90;;;;;;5018636;28;20257;-82
2022/12/09 11:31:22;;;;;;;;;;;2.00;99.90;;;;;;5017903;28;19921;-84
2022/12/09 11:33:54;;;;;;;;;;;2.10;99.90;;;;;;5017864;28;20416;-81
2022/12/09 11:36:26;;;;;;;;;;;2.00;99.90;;;;;;5017388;28;19928;-82
2022/12/09 11:38:52;;;;;;;;;;;2.00;99.90;;;;;;5019220;28;20075;-81
2022/12/09 11:44:23;;;;;;;;;;;2.10;99.90;;;;;;5018506;28;19981;-80
2022/12/09 11:47:07;;;;;;;;;;;2.20;99.90;;;;;;5018806;28;19974;-81
2022/12/09 11:49:35;;;;;;;;;;;2.30;99.90;;;;;;5019220;28;19963;-79
2022/12/09 11:52:01;;;;;;;;;;;2.30;99.90;;;;;;5017371;28;19929;-80
2022/12/09 11:54:30;;;;;;;;;;;2.30;99.90;;;;;;5019272;28;19921;-80
2022/12/09 11:56:57;;;;;;;;;;;2.40;99.90;;;;;;5018467;28;19921;-81
2022/12/09 11:59:35;;;;;;;;;;;2.40;99.90;;;;;;5017926;28;19928;-81
2022/12/09 12:02:19;;;;;;;;;;;2.40;99.90;;;;;;5018125;28;19928;-81
2022/12/09 12:04:51;;;;;;;;;;;2.40;99.90;;;;;;5017458;28;19960;-81
2022/12/09 12:07:29;;;;;;;;;;;2.40;99.90;;;;;;5018292;28;19921;-81
2022/12/09 12:09:56;;;;;;;;;;;2.50;99.90;;;;;;5017118;28;20016;-81
2022/12/09 12:12:42;;;;;;;;;;;2.40;99.90;;;;;;5017853;28;19921;-79
2022/12/09 12:15:33;;;;;;;;;;;2.30;99.90;;;;;;5016881;28;19928;-80
2022/12/09 12:18:03;;;;;;;;;;;2.40;99.90;;;;;;5017365;28;19922;-81
2022/12/09 12:20:44;;;;;;;;;;;2.30;99.90;;;;;;5017460;28;19921;-79
2022/12/09 12:23:18;;;;;;;;;;;2.40;99.90;;;;;;5016754;28;19921;-84
2022/12/09 12:25:58;;;;;;;;;;;2.40;99.90;;;;;;5017731;28;19921;-82
2022/12/09 12:28:35;;;;;;;;;;;2.40;99.90;;;;;;5016626;28;20250;-82
2022/12/09 12:31:07;;;;;;;;;;;2.50;99.90;;;;;;5018651;28;19921;-81
2022/12/09 12:33:51;;;;;;;;;;;2.50;99.90;;;;;;5019781;28;19921;-80
2022/12/09 12:36:22;;;;;;;;;;;2.50;99.90;;;;;;5020905;28;19922;-82
2022/12/09 12:39:03;;;;;;;;;;;2.60;99.90;;;;;;5021449;28;19921;-80
2022/12/09 12:41:36;;;;;;;;;;;2.60;99.90;;;;;;5019087;28;19921;-81
2022/12/09 12:47:16;;;;;;;;;;;2.70;99.90;;;;;;5019628;28;19943;-81
2022/12/09 12:49:48;;;;;;;;;;;2.80;99.90;;;;;;5019202;28;19944;-81
2022/12/09 12:52:14;;;;;;;;;;;2.80;99.90;;;;;;5019294;28;19928;-80
2022/12/09 12:54:47;;;;;;;;;;;2.90;99.90;;;;;;5028545;28;19952;-82
2022/12/09 12:57:18;;;;;;;;;;;2.90;99.90;;;;;;5018723;28;19982;-81
2022/12/09 12:59:49;;;;;;;;;;;2.80;99.90;;;;;;5019223;28;19923;-79
2022/12/09 13:02:35;;;;;;;;;;;2.90;99.90;;;;;;5019880;28;19932;-78
2022/12/09 13:05:03;;;;;;;;;;;2.90;99.90;;;;;;5020025;28;19928;-79
2022/12/09 13:07:35;;;;;;;;;;;2.90;99.90;;;;;;5018885;28;19922;-79
2022/12/09 13:10:18;;;;;;;;;;;2.90;99.90;;;;;;5018429;28;19961;-79
2022/12/09 13:13:03;;;;;;;;;;;2.90;99.90;;;;;;5018878;28;19922;-81
2022/12/09 13:15:35;;;;;;;;;;;3.00;99.90;;;;;;5001813;28;19921;-78
2022/12/09 13:18:23;;;;;;;;;;;3.00;99.90;;;;;;5017030;28;19922;-79
2022/12/09 13:21:07;;;;;;;;;;;3.00;99.90;;;;;;5018799;28;20296;-78
2022/12/09 13:23:51;;;;;;;;;;;2.90;99.90;;;;;;5017695;28;19922;-78
2022/12/09 13:26:29;;;;;;;;;;;2.90;99.90;;;;;;5018678;28;19977;-81
2022/12/09 13:29:13;;;;;;;;;;;2.90;99.90;;;;;;5018874;28;19925;-78
2022/12/09 13:31:46;;;;;;;;;;;2.90;99.90;;;;;;5018130;28;19922;-81
2022/12/09 13:34:31;;;;;;;;;;;3.00;99.90;;;;;;5018697;28;19975;-78
2022/12/09 13:36:59;;;;;;;;;;;3.00;99.90;;;;;;5016913;28;20047;-81
2022/12/09 13:39:40;;;;;;;;;;;3.00;99.90;;;;;;5013805;28;20003;-81
2022/12/09 13:45:13;;;;;;;;;;;2.90;99.90;;;;;;5029915;28;19959;-80
2022/12/09 13:47:39;;;;;;;;;;;2.80;99.90;;;;;;5013507;28;19928;-80
2022/12/09 13:50:06;;;;;;;;;;;2.80;99.90;;;;;;5012486;28;19925;-80
2022/12/09 13:52:38;;;;;;;;;;;2.80;99.90;;;;;;5012930;28;19921;-80
2022/12/09 13:55:16;;;;;;;;;;;2.80;99.90;;;;;;5014307;28;19921;-80
2022/12/09 13:57:46;;;;;;;;;;;2.80;99.90;;;;;;4996614;28;20015;-82
2022/12/09 14:00:16;;;;;;;;;;;2.80;99.90;;;;;;5014738;28;19925;-80
2022/12/09 14:02:51;;;;;;;;;;;2.80;99.90;;;;;;5012685;28;19928;-80
2022/12/09 14:05:24;;;;;;;;;;;2.90;99.90;;;;;;5012337;28;19972;-80
2022/12/09 14:08:05;;;;;;;;;;;2.90;99.90;;;;;;5015441;28;19921;-80
2022/12/09 14:10:41;;;;;;;;;;;2.90;99.90;;;;;;5015942;28;19921;-80
2022/12/09 14:13:36;;;;;;;;;;;2.90;99.90;;;;;;5016425;28;19964;-80
2022/12/09 14:16:20;;;;;;;;;;;2.90;99.90;;;;;;5016363;28;19921;-80
2022/12/09 14:18:45;;;;;;;;;;;2.90;99.90;;;;;;5017035;28;19929;-80
2022/12/09 14:21:17;;;;;;;;;;;2.80;99.90;;;;;;5017002;28;20385;-80
2022/12/09 14:24:01;;;;;;;;;;;2.80;99.90;;;;;;5015334;28;19921;-80
2022/12/09 14:26:33;;;;;;;;;;;2.70;99.90;;;;;;5016224;28;19921;-80
2022/12/09 14:28:59;;;;;;;;;;;2.70;99.90;;;;;;5016503;28;20258;-80
2022/12/09 14:31:54;;;;;;;;;;;2.70;99.90;;;;;;5017192;28;19928;-80
2022/12/09 14:34:25;;;;;;;;;;;2.70;99.90;;;;;;5015925;28;19976;-80
2022/12/09 14:36:55;;;;;;;;;;;2.60;99.90;;;;;;5016690;28;19922;-81
2022/12/09 14:39:27;;;;;;;;;;;2.50;99.90;;;;;;5016362;28;20292;-81
2022/12/09 14:42:00;;;;;;;;;;;2.60;99.90;;;;;;5016352;28;19921;-80
2022/12/09 14:44:39;;;;;;;;;;;2.60;99.90;;;;;;5016835;28;19940;-79
2022/12/09 14:47:25;;;;;;;;;;;2.60;99.90;;;;;;5016114;28;19922;-80
2022/12/09 14:49:52;;;;;;;;;;;2.50;99.90;;;;;;5016396;28;19944;-80
2022/12/09 14:52:27;;;;;;;;;;;2.50;99.90;;;;;;5016255;28;19961;-83
2022/12/09 14:54:54;;;;;;;;;;;2.60;99.90;;;;;;5016642;28;19921;-79